Flight Track Log - Related Links

Times and Time Zones

All times are in EDT time to prevent confusion due to time zone crossing. See the SWA2975 flight status page for this flight to view local times or setup timezone preferences in your user account.

Time Position Orientation Groundspeed Altitude Reporting Facility
EDT Latitude Longitude Course Direction KTS MPH feet Rate Location/Type
Mon 04:04:49 PM 39.8650 -104.6800 270° West 24 28  Level FlightAware ADS-B
Mon 04:05:19 PM 39.8640 -104.6840 252° West 18 21 1,208 Level FlightAware ADS-B
Mon 04:05:35 PM 39.8630 -104.6840 180° South 23 26 1,349 Level FlightAware ADS-B
Mon 04:06:02 PM 39.8600 -104.6840 180° South 25 29 1,438 Level FlightAware ADS-B
Mon 04:06:28 PM 39.8570 -104.6840 180° South 26 30 1,619 Level FlightAware ADS-B
Mon 04:06:59 PM 39.8530 -104.6840 180° South 23 26 1,841 Level FlightAware ADS-B
Mon 04:07:25 PM 39.8490 -104.6840 180° South 29 33 2,203 Level FlightAware ADS-B
Mon 04:08:04 PM 39.8450 -104.6840 180° South 31 36 2,636 Level FlightAware ADS-B
Mon 04:09:37 PM 39.8410 -104.7290 263° West 183 211 5,800 3,385 Climbing FlightAware ADS-B
Mon 04:10:01 PM 39.8420 -104.7570 273° West 190 219 6,600 1,833 Climbing FlightAware ADS-B
Mon 04:10:13 PM 39.8460 -104.7710 290° West 202 232 6,900 1,500 Climbing FlightAware ADS-B
Mon 04:10:29 PM 39.8540 -104.7880 302° West 211 243 7,300 1,227 Climbing FlightAware ADS-B
Mon 04:10:57 PM 39.8700 -104.8190 304° West 246 283 7,800 1,075 Climbing FlightAware ADS-B
Mon 04:11:36 PM 39.8870 -104.8530 303° West 269 310 8,500 1,800 Climbing FlightAware ADS-B
Mon 04:12:17 PM 39.9240 -104.9340 301° West 303 349 10,200 2,338 Climbing FlightAware ADS-B
Mon 04:12:53 PM 39.9450 -104.9930 295° West 315 362 11,500 2,538 Climbing FlightAware ADS-B
Mon 04:13:35 PM 39.9560 -105.0700 281° West 317 365 13,500 2,894 Climbing FlightAware ADS-B
Mon 04:14:18 PM 39.9650 -105.1500 278° West 319 367 15,600 2,805 Climbing FlightAware ADS-B
Mon 04:14:52 PM 39.9680 -105.1850 276° West 324 373 17,100 2,682 Climbing FlightAware ADS-B
Mon 04:15:43 PM 39.9540 -105.3190 262° West 325 374 19,400 2,645 Climbing FlightAware ADS-B
Mon 04:16:25 PM 39.9440 -105.4020 261° West 330 380 21,200 2,268 Climbing FlightAware ADS-B
Mon 04:17:05 PM 39.9310 -105.4790 258° West 341 392 22,500 1,917 Climbing FlightAware ADS-B
Mon 04:17:37 PM 39.9190 -105.5430 256° West 342 394 23,500 1,875 Climbing FlightAware ADS-B
Mon 04:18:25 PM 39.9220 -105.6430 272° West 350 403 25,000 1,773 Climbing FlightAware ADS-B
Mon 04:19:05 PM 39.9280 -105.7280 275° West 358 412 26,100 1,571 Climbing FlightAware ADS-B
Mon 04:19:49 PM 39.9350 -105.8230 276° West 364 419 27,200 1,500 Climbing FlightAware ADS-B
Mon 04:20:29 PM 39.9410 -105.9120 275° West 371 427 28,200 1,425 Climbing FlightAware ADS-B
Mon 04:21:09 PM 39.9470 -106.0030 275° West 378 435 29,100 1,373 Climbing FlightAware ADS-B
Mon 04:21:52 PM 39.9540 -106.0990 275° West 385 443 30,100 1,341 Climbing FlightAware ADS-B
Mon 04:22:34 PM 39.9610 -106.1970 275° West 390 449 31,000 1,256 Climbing FlightAware ADS-B
Mon 04:23:18 PM 39.9680 -106.2980 275° West 393 452 31,900 1,227 Climbing FlightAware ADS-B
Mon 04:24:02 PM 39.9750 -106.4050 275° West 399 459 32,800 1,171 Climbing FlightAware ADS-B
Mon 04:24:40 PM 39.9810 -106.4970 275° West 404 465 33,500 1,000 Climbing FlightAware ADS-B
Mon 04:25:26 PM 39.9880 -106.6040 275° West 408 470 34,200 951 Climbing FlightAware ADS-B
Mon 04:26:02 PM 39.9940 -106.6980 275° West 411 473 34,800 1,000 Climbing FlightAware ADS-B
Mon 04:26:50 PM 40.0020 -106.8130 275° West 413 475 35,600 818 Climbing FlightAware ADS-B
Mon 04:27:30 PM 40.0080 -106.9150 274° West 416 479 36,000 296 Climbing FlightAware ADS-B
Mon 04:28:11 PM 40.0150 -107.0150 275° West 413 475 36,000  Level FlightAware ADS-B
Mon 04:28:52 PM 40.0210 -107.1140 275° West 411 473 36,000  Level FlightAware ADS-B
Mon 04:29:31 PM 40.0270 -107.2130 275° West 412 474 36,000  Level FlightAware ADS-B
Mon 04:30:26 PM 40.0340 -107.3270 275° West 413 475 36,000  Level FlightAware ADS-B
Mon 04:31:11 PM 40.0410 -107.4610 274° West 415 478 36,000  Level FlightAware ADS-B
Mon 04:31:50 PM 40.0470 -107.5600 275° West 415 478 36,000  Level FlightAware ADS-B
Mon 04:32:35 PM 40.0530 -107.6710 274° West 413 475 36,000  Level FlightAware ADS-B
Mon 04:33:15 PM 40.0590 -107.7710 275° West 413 475 36,000  Level FlightAware ADS-B
Mon 04:33:57 PM 40.0650 -107.8750 274° West 413 475 36,000  Level FlightAware ADS-B
Mon 04:34:36 PM 40.0700 -107.9710 274° West 410 472 36,000  Level FlightAware ADS-B
Mon 04:35:20 PM 40.0740 -108.0790 273° West 408 470 36,000  Level FlightAware ADS-B
Mon 04:36:03 PM 40.0790 -108.1830 274° West 406 467 36,000  Level FlightAware ADS-B
Mon 04:36:43 PM 40.0830 -108.2820 273° West 405 466 36,000  Level FlightAware ADS-B
Mon 04:37:30 PM 40.0880 -108.3950 273° West 405 466 36,000  Level FlightAware ADS-B
Mon 04:38:10 PM 40.0930 -108.4950 274° West 405 466 36,000  Level FlightAware ADS-B
Mon 04:38:51 PM 40.0970 -108.5950 273° West 407 468 36,000  Level FlightAware ADS-B
Mon 04:39:34 PM 40.1010 -108.7010 273° West 408 470 36,000  Level FlightAware ADS-B
Mon 04:40:18 PM 40.1050 -108.8090 273° West 408 470 36,000  Level FlightAware ADS-B
Mon 04:40:59 PM 40.1090 -108.9080 273° West 408 470 36,000  Level FlightAware ADS-B
Mon 04:41:39 PM 40.1130 -109.0050 273° West 407 468 36,000  Level FlightAware ADS-B
Mon 04:42:21 PM 40.1160 -109.1080 272° West 409 471 36,000  Level FlightAware ADS-B
Mon 04:43:05 PM 40.1200 -109.2190 273° West 408 470 36,000  Level FlightAware ADS-B
Mon 04:43:42 PM 40.1240 -109.3110 273° West 407 468 36,000  Level FlightAware ADS-B
Mon 04:44:26 PM 40.1270 -109.4190 272° West 406 467 36,000 -205 Level FlightAware ADS-B
Mon 04:45:10 PM 40.1310 -109.5260 273° West 404 465 35,700 -621 Descending FlightAware ADS-B
Mon 04:45:53 PM 40.1240 -109.6270 265° West 403 464 35,100 -929 Descending FlightAware ADS-B
Mon 04:46:34 PM 40.1160 -109.7290 264° West 406 467 34,400 -951 Descending FlightAware ADS-B
Mon 04:47:15 PM 40.1060 -109.8250 262° West 407 468 33,800 -929 Descending FlightAware ADS-B
Mon 04:47:58 PM 40.0890 -109.9320 258° West 411 473 33,100 -975 Descending FlightAware ADS-B
Mon 04:48:35 PM 40.0760 -110.0180 259° West 416 479 32,500 -977 Descending FlightAware ADS-B
Mon 04:49:24 PM 40.0580 -110.1390 259° West 420 483 31,700 -944 Descending FlightAware ADS-B
Mon 04:50:04 PM 40.0420 -110.2410 258° West 422 486 31,100 -1,306 Descending FlightAware ADS-B
Mon 04:51:28 PM 40.0340 -110.3560 265° West 444 511 29,000 -1,597 Descending FlightAware ADS-B
Mon 04:52:08 PM 40.0580 -110.5670 279° West 449 517 27,800 -1,742 Descending FlightAware ADS-B
Mon 04:53:01 PM 40.0640 -110.7110 273° West 456 525 26,300 -1,256 Descending FlightAware ADS-B
Mon 04:53:34 PM 40.0690 -110.7790 276° West 431 496 26,000 -222 Descending FlightAware ADS-B
Mon 04:54:22 PM 40.0780 -110.8910 276° West 412 474 26,000  Level FlightAware ADS-B
Mon 04:54:58 PM 40.0850 -110.9660 277° West 412 474 26,000  Level FlightAware ADS-B
Mon 04:55:46 PM 40.0930 -111.0670 276° West 412 474 26,000  Level FlightAware ADS-B
Mon 04:56:22 PM 40.0990 -111.1430 276° West 412 474 26,000  Level FlightAware ADS-B
Mon 04:57:11 PM 40.1070 -111.2470 276° West 412 474 26,000  Level FlightAware ADS-B
Mon 04:57:48 PM 40.1130 -111.3240 276° West 412 474 26,000 -2,480 Level FlightAware ADS-B
Mon 05:00:27 PM 40.1730 -111.7010 282° West 360 414 17,900 -2,848 Descending FlightAware ADS-B
Mon 05:01:06 PM 40.1900 -111.7800 286° West 358 412 16,600 -1,976 Descending FlightAware ADS-B
Mon 05:01:52 PM 40.2120 -111.8780 286° West 352 405 15,100 -1,674 Descending FlightAware ADS-B
Mon 05:02:32 PM 40.2310 -111.9610 287° West 349 402 14,200 -1,615 Descending FlightAware ADS-B
Mon 05:03:10 PM 40.2480 -112.0350 287° West 346 398 13,000 -918 Descending FlightAware ADS-B
Mon 05:03:57 PM 40.2790 -112.1160 297° West 339 390 12,900 -103 Descending FlightAware ADS-B
Mon 05:04:08 PM 40.2980 -112.1340 324° Northwest 342 394 12,900  Level FlightAware ADS-B
Mon 05:04:50 PM 40.3540 -112.1820 327° Northwest 342 394 12,900  Level FlightAware ADS-B
Mon 05:05:35 PM 40.4190 -112.2220 335° Northwest 339 390 12,900  Level FlightAware ADS-B
Mon 05:06:28 PM 40.5010 -112.2130 North 353 406 12,900 -122 Level FlightAware ADS-B
Mon 05:07:13 PM 40.5680 -112.1820 19° North 354 407 12,700 -565 Descending FlightAware ADS-B
Mon 05:07:53 PM 40.6330 -112.1520 19° North 353 406 12,100 -1,143 Descending FlightAware ADS-B
Mon 05:08:37 PM 40.6980 -112.1220 19° North 326 375 11,100 -878 Descending FlightAware ADS-B
Mon 05:09:15 PM 40.7500 -112.1000 18° North 286 329 10,900 -145 Descending FlightAware ADS-B
Mon 05:10:00 PM 40.8020 -112.0810 15° North 237 273 10,900 -80 Level FlightAware ADS-B
Mon 05:10:30 PM 40.8310 -112.0830 357° North 196 226 10,800 -931 Descending FlightAware ADS-B
Mon 05:10:58 PM 40.8560 -112.0860 355° North 195 224 10,000 -1,778 Descending FlightAware ADS-B
Mon 05:11:24 PM 40.8800 -112.0870 358° North 191 220 9,200 -1,929 Descending FlightAware ADS-B
Mon 05:11:54 PM 40.9040 -112.0760 19° North 199 229 8,200 -1,800 Descending FlightAware ADS-B
Mon 05:12:04 PM 40.9080 -112.0660 62° Northeast 194 223 8,000 -1,535 Descending FlightAware ADS-B
Mon 05:12:37 PM 40.9130 -112.0280 80° East 185 213 7,100 -1,600 Descending FlightAware ADS-B
Mon 05:13:04 PM 40.9070 -112.0010 106° East 180 207 6,400 -1,622 Descending FlightAware ADS-B
Mon 05:13:14 PM 40.9000 -111.9940 143° Southeast 178 205 6,100 -1,364 Descending FlightAware ADS-B
Mon 05:13:26 PM 40.8920 -111.9890 155° Southeast 166 191 5,900 -1,043 Descending FlightAware ADS-B
Mon 05:14:00 PM 40.8650 -111.9830 170° South 166 191 5,300 -1,048 Descending FlightAware ADS-B
Mon 05:14:29 PM 40.8420 -111.9810 176° South 172 198 4,800 -964 Descending FlightAware ADS-B
Mon 05:14:56 PM 40.8220 -111.9790 176° South 168 193 4,400 -894 Descending FlightAware ADS-B
Mon 05:15:16 PM 40.8070 -111.9770 174° South 171 197 4,100 -222 Descending FlightAware ADS-B
Mon 05:15:50 PM 40.7894 -111.9742 174° South 158 182 4,200 176 Climbing Salt Lake Center
Mon 05:17:00 PM 40.7833 -111.9667 North  Level FlightAware Approximate

Login

Don't have an account? Register now (free) for customized features, flight alerts, and more!